sensor_id;sensor_type;location;lat;lon;timestamp;pressure;altitude;pressure_sealevel;temperature;humidity
4410;BME280;2218;51.408;7.208;2023-07-16T00:01:01;99137.28;;;25.01;51.78
4410;BME280;2218;51.408;7.208;2023-07-16T00:03:28;99142.59;;;25.01;51.96
4410;BME280;2218;51.408;7.208;2023-07-16T00:05:55;99146.22;;;25.00;52.07
4410;BME280;2218;51.408;7.208;2023-07-16T00:08:23;99149.88;;;24.99;51.94
4410;BME280;2218;51.408;7.208;2023-07-16T00:10:50;99143.56;;;25.00;52.09
4410;BME280;2218;51.408;7.208;2023-07-16T00:13:17;99148.88;;;25.00;52.01
4410;BME280;2218;51.408;7.208;2023-07-16T00:15:44;99150.69;;;25.00;52.16
4410;BME280;2218;51.408;7.208;2023-07-16T00:18:11;99166.66;;;25.00;52.15
4410;BME280;2218;51.408;7.208;2023-07-16T00:20:38;99160.50;;;24.99;52.01
4410;BME280;2218;51.408;7.208;2023-07-16T00:23:05;99158.84;;;24.98;52.11
4410;BME280;2218;51.408;7.208;2023-07-16T00:25:33;99158.84;;;24.98;52.06
4410;BME280;2218;51.408;7.208;2023-07-16T00:28:00;99158.84;;;24.98;52.13
4410;BME280;2218;51.408;7.208;2023-07-16T00:30:28;99158.00;;;24.98;52.18
4410;BME280;2218;51.408;7.208;2023-07-16T00:32:55;99164.16;;;24.98;52.11
4410;BME280;2218;51.408;7.208;2023-07-16T00:35:22;99161.50;;;24.98;51.97
4410;BME280;2218;51.408;7.208;2023-07-16T00:37:49;99165.16;;;24.97;52.06
4410;BME280;2218;51.408;7.208;2023-07-16T00:40:16;99174.78;;;24.98;52.05
4410;BME280;2218;51.408;7.208;2023-07-16T00:42:44;99170.47;;;24.97;52.01
4410;BME280;2218;51.408;7.208;2023-07-16T00:45:13;99169.63;;;24.97;52.27
4410;BME280;2218;51.408;7.208;2023-07-16T00:47:41;99177.63;;;24.97;52.29
4410;BME280;2218;51.408;7.208;2023-07-16T00:50:10;99176.78;;;24.96;52.11
4410;BME280;2218;51.408;7.208;2023-07-16T00:52:39;99180.41;;;24.95;52.25
4410;BME280;2218;51.408;7.208;2023-07-16T00:55:08;99183.91;;;24.96;52.13
4410;BME280;2218;51.408;7.208;2023-07-16T00:57:35;99182.09;;;24.96;52.19
4410;BME280;2218;51.408;7.208;2023-07-16T01:00:05;99197.19;;;24.96;52.22
4410;BME280;2218;51.408;7.208;2023-07-16T01:02:33;99192.88;;;24.95;52.14
4410;BME280;2218;51.408;7.208;2023-07-16T01:05:00;99195.53;;;24.95;52.27
4410;BME280;2218;51.408;7.208;2023-07-16T01:07:30;99197.34;;;24.94;52.20
4410;BME280;2218;51.408;7.208;2023-07-16T01:09:58;99180.41;;;24.95;52.18
4410;BME280;2218;51.408;7.208;2023-07-16T01:12:27;99188.53;;;24.94;52.06
4410;BME280;2218;51.408;7.208;2023-07-16T01:14:57;99193.03;;;24.93;52.17
4410;BME280;2218;51.408;7.208;2023-07-16T01:17:26;99185.06;;;24.93;52.13
4410;BME280;2218;51.408;7.208;2023-07-16T01:19:53;99187.72;;;24.93;52.16
4410;BME280;2218;51.408;7.208;2023-07-16T01:22:39;99187.72;;;24.93;52.36
4410;BME280;2218;51.408;7.208;2023-07-16T01:25:43;99198.34;;;24.93;52.12
4410;BME280;2218;51.408;7.208;2023-07-16T01:28:44;99192.38;;;24.91;52.28
4410;BME280;2218;51.408;7.208;2023-07-16T01:31:20;99192.38;;;24.91;52.28
4410;BME280;2218;51.408;7.208;2023-07-16T01:33:50;99191.38;;;24.92;52.07
4410;BME280;2218;51.408;7.208;2023-07-16T01:36:18;99197.69;;;24.91;52.16
4410;BME280;2218;51.408;7.208;2023-07-16T01:38:46;99195.03;;;24.91;52.14
4410;BME280;2218;51.408;7.208;2023-07-16T01:41:14;99193.31;;;24.90;52.22
4410;BME280;2218;51.408;7.208;2023-07-16T01:43:40;99198.66;;;24.90;52.09
4410;BME280;2218;51.408;7.208;2023-07-16T01:46:08;99199.47;;;24.91;52.23
4410;BME280;2218;51.408;7.208;2023-07-16T01:48:38;99200.47;;;24.90;52.22
4410;BME280;2218;51.408;7.208;2023-07-16T01:51:05;99195.16;;;24.90;52.34
4410;BME280;2218;51.408;7.208;2023-07-16T01:53:32;99206.78;;;24.89;52.30
4410;BME280;2218;51.408;7.208;2023-07-16T01:56:01;99208.59;;;24.88;52.27
4410;BME280;2218;51.408;7.208;2023-07-16T01:58:28;99212.94;;;24.89;51.96
4410;BME280;2218;51.408;7.208;2023-07-16T02:00:55;99210.28;;;24.89;52.23
4410;BME280;2218;51.408;7.208;2023-07-16T02:03:23;99216.59;;;24.88;52.21
4410;BME280;2218;51.408;7.208;2023-07-16T02:05:51;99213.22;;;24.86;52.54
4410;BME280;2218;51.408;7.208;2023-07-16T02:08:18;99228.03;;;24.89;52.20
4410;BME280;2218;51.408;7.208;2023-07-16T02:10:47;99232.53;;;24.88;52.33
4410;BME280;2218;51.408;7.208;2023-07-16T02:13:14;99228.22;;;24.87;52.18
4410;BME280;2218;51.408;7.208;2023-07-16T02:15:42;99226.50;;;24.86;52.44
4410;BME280;2218;51.408;7.208;2023-07-16T02:18:10;99235.34;;;24.87;52.44
4410;BME280;2218;51.408;7.208;2023-07-16T02:20:37;99237.03;;;24.88;52.17
4410;BME280;2218;51.408;7.208;2023-07-16T02:23:05;99238.00;;;24.87;52.31
4410;BME280;2218;51.408;7.208;2023-07-16T02:25:33;99246.81;;;24.87;52.21
4410;BME280;2218;51.408;7.208;2023-07-16T02:27:59;99242.47;;;24.86;52.22
4410;BME280;2218;51.408;7.208;2023-07-16T02:30:29;99238.97;;;24.86;52.35
4410;BME280;2218;51.408;7.208;2023-07-16T02:32:56;99248.78;;;24.85;52.37
4410;BME280;2218;51.408;7.208;2023-07-16T02:35:23;99247.78;;;24.86;52.21
4410;BME280;2218;51.408;7.208;2023-07-16T02:37:50;99241.63;;;24.86;52.36
4410;BME280;2218;51.408;7.208;2023-07-16T02:40:19;99239.97;;;24.85;52.49
4410;BME280;2218;51.408;7.208;2023-07-16T02:42:46;99243.47;;;24.85;52.26
4410;BME280;2218;51.408;7.208;2023-07-16T02:45:13;99257.75;;;24.84;52.44
4410;BME280;2218;51.408;7.208;2023-07-16T02:47:41;99252.44;;;24.84;52.48
4410;BME280;2218;51.408;7.208;2023-07-16T02:50:10;99253.41;;;24.83;52.40
4410;BME280;2218;51.408;7.208;2023-07-16T02:52:37;99266.72;;;24.83;52.12
4410;BME280;2218;51.408;7.208;2023-07-16T02:55:05;99265.88;;;24.83;52.44
4410;BME280;2218;51.408;7.208;2023-07-16T02:57:33;99256.06;;;24.83;52.37
4410;BME280;2218;51.408;7.208;2023-07-16T03:00:00;99257.91;;;24.83;52.36
4410;BME280;2218;51.408;7.208;2023-07-16T03:02:27;99257.06;;;24.82;52.31
4410;BME280;2218;51.408;7.208;2023-07-16T03:04:54;99259.72;;;24.82;52.29
4410;BME280;2218;51.408;7.208;2023-07-16T03:07:21;99255.25;;;24.83;52.26
4410;BME280;2218;51.408;7.208;2023-07-16T03:09:50;99270.38;;;24.82;52.74
4410;BME280;2218;51.408;7.208;2023-07-16T03:12:17;99267.72;;;24.82;52.50
4410;BME280;2218;51.408;7.208;2023-07-16T03:14:45;99265.06;;;24.82;52.23
4410;BME280;2218;51.408;7.208;2023-07-16T03:17:12;99268.66;;;24.81;52.49
4410;BME280;2218;51.408;7.208;2023-07-16T03:19:39;99277.50;;;24.82;52.36
4410;BME280;2218;51.408;7.208;2023-07-16T03:22:06;99273.97;;;24.81;52.36
4410;BME280;2218;51.408;7.208;2023-07-16T03:24:32;99272.31;;;24.80;52.63
4410;BME280;2218;51.408;7.208;2023-07-16T03:27:00;99283.78;;;24.81;52.25
4410;BME280;2218;51.408;7.208;2023-07-16T03:29:27;99282.94;;;24.80;52.35
4410;BME280;2218;51.408;7.208;2023-07-16T03:31:56;99270.66;;;24.79;52.47
4410;BME280;2218;51.408;7.208;2023-07-16T03:34:23;99283.94;;;24.79;52.42
4410;BME280;2218;51.408;7.208;2023-07-16T03:36:50;99284.78;;;24.80;52.29
4410;BME280;2218;51.408;7.208;2023-07-16T03:39:17;99287.44;;;24.80;52.30
4410;BME280;2218;51.408;7.208;2023-07-16T03:41:44;99294.56;;;24.79;52.26
4410;BME280;2218;51.408;7.208;2023-07-16T03:44:11;99298.06;;;24.80;52.21
4410;BME280;2218;51.408;7.208;2023-07-16T03:46:38;99302.53;;;24.79;52.23
4410;BME280;2218;51.408;7.208;2023-07-16T03:49:08;99306.19;;;24.78;52.14
4410;BME280;2218;51.408;7.208;2023-07-16T03:51:35;99314.16;;;24.78;52.13
4410;BME280;2218;51.408;7.208;2023-07-16T03:54:02;99322.97;;;24.79;52.14
4410;BME280;2218;51.408;7.208;2023-07-16T03:56:32;99314.16;;;24.78;51.95
4410;BME280;2218;51.408;7.208;2023-07-16T03:58:58;99322.97;;;24.79;52.03
4410;BME280;2218;51.408;7.208;2023-07-16T04:01:26;99330.13;;;24.78;52.05
4410;BME280;2218;51.408;7.208;2023-07-16T04:03:53;99331.94;;;24.78;52.17
4410;BME280;2218;51.408;7.208;2023-07-16T04:06:22;99323.97;;;24.78;52.25
4410;BME280;2218;51.408;7.208;2023-07-16T04:08:48;99328.44;;;24.77;52.16
4410;BME280;2218;51.408;7.208;2023-07-16T04:11:15;99342.56;;;24.78;51.99
4410;BME280;2218;51.408;7.208;2023-07-16T04:13:42;99337.25;;;24.78;52.22
4410;BME280;2218;51.408;7.208;2023-07-16T04:16:09;99344.41;;;24.77;52.12
4410;BME280;2218;51.408;7.208;2023-07-16T04:18:36;99341.75;;;24.77;51.91
4410;BME280;2218;51.408;7.208;2023-07-16T04:21:03;99341.75;;;24.77;51.83
4410;BME280;2218;51.408;7.208;2023-07-16T04:23:31;99345.22;;;24.78;51.79
4410;BME280;2218;51.408;7.208;2023-07-16T04:25:58;99350.69;;;24.76;51.93
4410;BME280;2218;51.408;7.208;2023-07-16T04:28:25;99356.84;;;24.77;51.76
4410;BME280;2218;51.408;7.208;2023-07-16T04:30:52;99352.38;;;24.77;51.66
4410;BME280;2218;51.408;7.208;2023-07-16T04:33:19;99352.38;;;24.77;51.92
4410;BME280;2218;51.408;7.208;2023-07-16T04:35:46;99351.53;;;24.77;51.72
4410;BME280;2218;51.408;7.208;2023-07-16T04:38:13;99349.72;;;24.77;51.68
4410;BME280;2218;51.408;7.208;2023-07-16T04:40:43;99356.84;;;24.77;51.66
4410;BME280;2218;51.408;7.208;2023-07-16T04:43:10;99363.00;;;24.77;51.74
4410;BME280;2218;51.408;7.208;2023-07-16T04:45:37;99357.69;;;24.77;51.67
4410;BME280;2218;51.408;7.208;2023-07-16T04:48:05;99370.97;;;24.77;51.68
4410;BME280;2218;51.408;7.208;2023-07-16T04:50:32;99367.59;;;24.75;51.61
4410;BME280;2218;51.408;7.208;2023-07-16T04:52:59;99368.31;;;24.77;51.54
4410;BME280;2218;51.408;7.208;2023-07-16T04:55:26;99372.78;;;24.77;51.62
4410;BME280;2218;51.408;7.208;2023-07-16T04:57:54;99369.28;;;24.76;51.47
4410;BME280;2218;51.408;7.208;2023-07-16T05:00:22;99375.47;;;24.77;51.47
4410;BME280;2218;51.408;7.208;2023-07-16T05:02:49;99381.72;;;24.75;51.50
4410;BME280;2218;51.408;7.208;2023-07-16T05:05:16;99385.22;;;24.76;51.39
4410;BME280;2218;51.408;7.208;2023-07-16T05:07:43;99387.59;;;24.79;51.46
4410;BME280;2218;51.408;7.208;2023-07-16T05:10:11;99389.97;;;24.82;51.23
4410;BME280;2218;51.408;7.208;2023-07-16T05:12:38;99397.50;;;24.87;51.16
4410;BME280;2218;51.408;7.208;2023-07-16T05:15:08;99400.66;;;24.90;50.97
4410;BME280;2218;51.408;7.208;2023-07-16T05:17:35;99397.56;;;24.95;51.09
4410;BME280;2218;51.408;7.208;2023-07-16T05:20:03;99395.59;;;24.97;50.88
4410;BME280;2218;51.408;7.208;2023-07-16T05:22:30;99400.59;;;25.00;50.83
4410;BME280;2218;51.408;7.208;2023-07-16T05:24:57;99403.13;;;25.01;50.68
4410;BME280;2218;51.408;7.208;2023-07-16T05:27:24;99404.63;;;25.04;50.73
4410;BME280;2218;51.408;7.208;2023-07-16T05:29:51;99399.97;;;25.06;50.66
4410;BME280;2218;51.408;7.208;2023-07-16T05:32:19;99399.88;;;25.08;50.41
4410;BME280;2218;51.408;7.208;2023-07-16T05:34:46;99396.91;;;25.11;50.69
4410;BME280;2218;51.408;7.208;2023-07-16T05:37:13;99402.09;;;25.12;50.53
4410;BME280;2218;51.408;7.208;2023-07-16T05:39:40;99404.59;;;25.14;50.65
4410;BME280;2218;51.408;7.208;2023-07-16T05:42:07;99396.31;;;25.17;50.36
4410;BME280;2218;51.408;7.208;2023-07-16T05:44:34;99406.63;;;25.20;50.10
4410;BME280;2218;51.408;7.208;2023-07-16T05:47:00;99405.50;;;25.22;49.94
4410;BME280;2218;51.408;7.208;2023-07-16T05:49:29;99408.84;;;25.24;49.84
4410;BME280;2218;51.408;7.208;2023-07-16T05:51:55;99403.34;;;25.26;49.65
4410;BME280;2218;51.408;7.208;2023-07-16T05:54:23;99411.06;;;25.29;49.79
4410;BME280;2218;51.408;7.208;2023-07-16T05:56:50;99400.13;;;25.32;49.90
4410;BME280;2218;51.408;7.208;2023-07-16T05:59:17;99408.09;;;25.32;49.45
4410;BME280;2218;51.408;7.208;2023-07-16T06:01:44;99414.09;;;25.34;49.34
4410;BME280;2218;51.408;7.208;2023-07-16T06:04:11;99409.59;;;25.35;49.42
4410;BME280;2218;51.408;7.208;2023-07-16T06:06:39;99419.25;;;25.36;49.46
4410;BME280;2218;51.408;7.208;2023-07-16T06:09:06;99416.44;;;25.37;49.31
4410;BME280;2218;51.408;7.208;2023-07-16T06:11:33;99418.78;;;25.40;49.36
4410;BME280;2218;51.408;7.208;2023-07-16T06:13:59;99420.47;;;25.41;49.66
4410;BME280;2218;51.408;7.208;2023-07-16T06:16:26;99425.81;;;25.41;49.55
4410;BME280;2218;51.408;7.208;2023-07-16T06:18:54;99423.81;;;25.43;49.29
4410;BME280;2218;51.408;7.208;2023-07-16T06:21:22;99427.16;;;25.45;49.16
4410;BME280;2218;51.408;7.208;2023-07-16T06:23:50;99432.47;;;25.45;49.23
4410;BME280;2218;51.408;7.208;2023-07-16T06:26:17;99439.47;;;25.46;49.08
4410;BME280;2218;51.408;7.208;2023-07-16T06:28:44;99439.47;;;25.46;48.94
4410;BME280;2218;51.408;7.208;2023-07-16T06:31:15;99443.81;;;25.47;48.73
4410;BME280;2218;51.408;7.208;2023-07-16T06:33:41;99445.63;;;25.47;48.76
4410;BME280;2218;51.408;7.208;2023-07-16T06:36:08;99456.28;;;25.47;48.88
4410;BME280;2218;51.408;7.208;2023-07-16T06:38:35;99449.81;;;25.49;48.92
4410;BME280;2218;51.408;7.208;2023-07-16T06:41:04;99452.47;;;25.49;48.68
4410;BME280;2218;51.408;7.208;2023-07-16T06:43:31;99447.13;;;25.49;48.75
4410;BME280;2218;51.408;7.208;2023-07-16T06:45:58;99446.16;;;25.50;48.56
4410;BME280;2218;51.408;7.208;2023-07-16T06:48:25;99452.34;;;25.51;48.75
4410;BME280;2218;51.408;7.208;2023-07-16T06:50:52;99447.00;;;25.51;48.46
4410;BME280;2218;51.408;7.208;2023-07-16T06:53:19;99461.28;;;25.50;48.35
4410;BME280;2218;51.408;7.208;2023-07-16T06:55:47;99456.94;;;25.49;48.89
4410;BME280;2218;51.408;7.208;2023-07-16T06:58:16;99453.47;;;25.48;48.53
4410;BME280;2218;51.408;7.208;2023-07-16T07:00:43;99452.63;;;25.48;48.59
4410;BME280;2218;51.408;7.208;2023-07-16T07:03:10;99447.97;;;25.50;48.54
4410;BME280;2218;51.408;7.208;2023-07-16T07:05:41;99451.47;;;25.50;48.64
4410;BME280;2218;51.408;7.208;2023-07-16T07:08:08;99451.47;;;25.50;48.55
4410;BME280;2218;51.408;7.208;2023-07-16T07:10:35;99453.16;;;25.51;48.32
4410;BME280;2218;51.408;7.208;2023-07-16T07:13:03;99449.81;;;25.49;48.34
4410;BME280;2218;51.408;7.208;2023-07-16T07:15:31;99456.78;;;25.50;48.40
4410;BME280;2218;51.408;7.208;2023-07-16T07:17:58;99452.47;;;25.49;48.23
4410;BME280;2218;51.408;7.208;2023-07-16T07:20:25;99457.78;;;25.49;47.89
4410;BME280;2218;51.408;7.208;2023-07-16T07:22:52;99460.44;;;25.49;48.34
4410;BME280;2218;51.408;7.208;2023-07-16T07:25:19;99465.75;;;25.49;48.08
4410;BME280;2218;51.408;7.208;2023-07-16T07:27:46;99461.28;;;25.50;48.12
4410;BME280;2218;51.408;7.208;2023-07-16T07:30:13;99471.09;;;25.49;48.00
4410;BME280;2218;51.408;7.208;2023-07-16T07:32:42;99468.44;;;25.49;48.24
4410;BME280;2218;51.408;7.208;2023-07-16T07:35:09;99458.78;;;25.48;48.01
4410;BME280;2218;51.408;7.208;2023-07-16T07:37:36;99468.44;;;25.49;48.33
4410;BME280;2218;51.408;7.208;2023-07-16T07:40:04;99468.44;;;25.49;48.09
4410;BME280;2218;51.408;7.208;2023-07-16T07:42:31;99480.06;;;25.48;48.04
4410;BME280;2218;51.408;7.208;2023-07-16T07:44:58;99473.91;;;25.48;48.25
4410;BME280;2218;51.408;7.208;2023-07-16T07:47:25;99470.41;;;25.47;48.28
4410;BME280;2218;51.408;7.208;2023-07-16T07:49:53;99472.25;;;25.47;48.12
4410;BME280;2218;51.408;7.208;2023-07-16T07:52:20;99479.38;;;25.46;48.17
4410;BME280;2218;51.408;7.208;2023-07-16T07:54:47;99477.69;;;25.45;48.04
4410;BME280;2218;51.408;7.208;2023-07-16T07:57:15;99478.53;;;25.46;47.62
4410;BME280;2218;51.408;7.208;2023-07-16T07:59:42;99484.72;;;25.46;47.89
4410;BME280;2218;51.408;7.208;2023-07-16T08:02:09;99478.69;;;25.44;47.82
4410;BME280;2218;51.408;7.208;2023-07-16T08:04:36;99473.22;;;25.46;47.75
4410;BME280;2218;51.408;7.208;2023-07-16T08:07:05;99472.38;;;25.45;47.48
4410;BME280;2218;51.408;7.208;2023-07-16T08:09:32;99483.00;;;25.45;47.67
4410;BME280;2218;51.408;7.208;2023-07-16T08:11:59;99479.38;;;25.46;47.63
4410;BME280;2218;51.408;7.208;2023-07-16T08:14:26;99487.38;;;25.46;47.52
4410;BME280;2218;51.408;7.208;2023-07-16T08:16:53;99483.00;;;25.45;47.15
4410;BME280;2218;51.408;7.208;2023-07-16T08:19:19;99491.00;;;25.45;47.29
4410;BME280;2218;51.408;7.208;2023-07-16T08:21:47;99486.50;;;25.46;47.24
4410;BME280;2218;51.408;7.208;2023-07-16T08:24:15;99496.31;;;25.45;47.22
4410;BME280;2218;51.408;7.208;2023-07-16T08:26:42;99489.31;;;25.44;47.47
4410;BME280;2218;51.408;7.208;2023-07-16T08:29:09;99494.66;;;25.44;47.21
4410;BME280;2218;51.408;7.208;2023-07-16T08:31:35;99500.81;;;25.45;47.36
4410;BME280;2218;51.408;7.208;2023-07-16T08:34:02;99505.28;;;25.44;47.24
4410;BME280;2218;51.408;7.208;2023-07-16T08:36:29;99506.97;;;25.45;46.92
4410;BME280;2218;51.408;7.208;2023-07-16T08:38:56;99512.28;;;25.45;47.01
4410;BME280;2218;51.408;7.208;2023-07-16T08:41:25;99514.09;;;25.45;47.00
4410;BME280;2218;51.408;7.208;2023-07-16T08:43:53;99510.63;;;25.44;46.58
4410;BME280;2218;51.408;7.208;2023-07-16T08:46:21;99514.94;;;25.45;46.53
4410;BME280;2218;51.408;7.208;2023-07-16T08:48:48;99499.97;;;25.44;46.65
4410;BME280;2218;51.408;7.208;2023-07-16T08:51:15;99510.63;;;25.44;46.55
4410;BME280;2218;51.408;7.208;2023-07-16T08:53:44;99512.44;;;25.44;46.09
4410;BME280;2218;51.408;7.208;2023-07-16T08:56:11;99514.25;;;25.43;46.21
4410;BME280;2218;51.408;7.208;2023-07-16T08:58:42;99518.59;;;25.44;45.86
4410;BME280;2218;51.408;7.208;2023-07-16T09:01:10;99519.59;;;25.43;46.50
4410;BME280;2218;51.408;7.208;2023-07-16T09:03:37;99508.94;;;25.43;46.12
4410;BME280;2218;51.408;7.208;2023-07-16T09:06:04;99508.94;;;25.43;46.00
4410;BME280;2218;51.408;7.208;2023-07-16T09:08:31;99515.09;;;25.44;45.99
4410;BME280;2218;51.408;7.208;2023-07-16T09:10:58;99513.44;;;25.43;46.09
4410;BME280;2218;51.408;7.208;2023-07-16T09:13:25;99523.09;;;25.44;45.58
4410;BME280;2218;51.408;7.208;2023-07-16T09:15:56;99519.59;;;25.43;46.20
4410;BME280;2218;51.408;7.208;2023-07-16T09:18:25;99519.59;;;25.43;45.70
4410;BME280;2218;51.408;7.208;2023-07-16T09:20:55;99524.91;;;25.43;46.21
4410;BME280;2218;51.408;7.208;2023-07-16T09:23:25;99530.22;;;25.43;45.57
4410;BME280;2218;51.408;7.208;2023-07-16T09:25:53;99530.22;;;25.43;45.94
4410;BME280;2218;51.408;7.208;2023-07-16T09:28:20;99531.22;;;25.42;46.24
4410;BME280;2218;51.408;7.208;2023-07-16T09:30:49;99533.06;;;25.42;46.21
4410;BME280;2218;51.408;7.208;2023-07-16T09:33:20;99524.06;;;25.43;46.35
4410;BME280;2218;51.408;7.208;2023-07-16T09:35:49;99540.88;;;25.43;46.20
4410;BME280;2218;51.408;7.208;2023-07-16T09:38:17;99537.22;;;25.44;45.69
4410;BME280;2218;51.408;7.208;2023-07-16T09:40:44;99530.41;;;25.42;45.92
4410;BME280;2218;51.408;7.208;2023-07-16T09:43:12;99535.56;;;25.43;45.82
4410;BME280;2218;51.408;7.208;2023-07-16T09:45:42;99539.22;;;25.42;45.85
4410;BME280;2218;51.408;7.208;2023-07-16T09:48:10;99535.56;;;25.43;45.83
4410;BME280;2218;51.408;7.208;2023-07-16T09:50:44;99533.88;;;25.42;45.70
4410;BME280;2218;51.408;7.208;2023-07-16T09:53:18;99533.88;;;25.42;45.70
4410;BME280;2218;51.408;7.208;2023-07-16T09:55:48;99538.38;;;25.42;45.80
4410;BME280;2218;51.408;7.208;2023-07-16T09:58:19;99543.69;;;25.42;46.03
4410;BME280;2218;51.408;7.208;2023-07-16T10:00:49;99545.53;;;25.41;45.81
4410;BME280;2218;51.408;7.208;2023-07-16T10:03:16;99539.34;;;25.41;45.63
4410;BME280;2218;51.408;7.208;2023-07-16T10:05:45;99543.69;;;25.42;45.39
4410;BME280;2218;51.408;7.208;2023-07-16T10:08:19;99544.53;;;25.42;46.09
4410;BME280;2218;51.408;7.208;2023-07-16T10:10:48;99549.84;;;25.42;44.82
4410;BME280;2218;51.408;7.208;2023-07-16T10:13:17;99554.19;;;25.43;45.33
4410;BME280;2218;51.408;7.208;2023-07-16T10:15:55;99546.34;;;25.42;45.56
4410;BME280;2218;51.408;7.208;2023-07-16T10:18:25;99557.97;;;25.41;45.55
4410;BME280;2218;51.408;7.208;2023-07-16T10:21:00;99549.97;;;25.41;45.05
4410;BME280;2218;51.408;7.208;2023-07-16T10:23:38;99561.47;;;25.41;46.06
4410;BME280;2218;51.408;7.208;2023-07-16T10:26:10;99563.28;;;25.41;45.26
4410;BME280;2218;51.408;7.208;2023-07-16T10:28:38;99554.47;;;25.40;45.17
4410;BME280;2218;51.408;7.208;2023-07-16T10:31:06;99569.47;;;25.41;45.32
4410;BME280;2218;51.408;7.208;2023-07-16T10:33:43;99551.81;;;25.40;45.15
4410;BME280;2218;51.408;7.208;2023-07-16T10:36:18;99561.63;;;25.40;45.56
4410;BME280;2218;51.408;7.208;2023-07-16T10:38:46;99564.16;;;25.41;45.28
4410;BME280;2218;51.408;7.208;2023-07-16T10:41:13;99566.81;;;25.41;45.48
4410;BME280;2218;51.408;7.208;2023-07-16T10:43:40;99557.97;;;25.41;45.17
4410;BME280;2218;51.408;7.208;2023-07-16T10:46:08;99561.63;;;25.40;44.83
4410;BME280;2218;51.408;7.208;2023-07-16T10:48:35;99565.09;;;25.40;45.27
4410;BME280;2218;51.408;7.208;2023-07-16T10:51:02;99572.25;;;25.40;44.89
4410;BME280;2218;51.408;7.208;2023-07-16T10:53:31;99581.06;;;25.40;44.78
4410;BME280;2218;51.408;7.208;2023-07-16T10:55:59;99577.56;;;25.40;44.82
4410;BME280;2218;51.408;7.208;2023-07-16T10:58:26;99570.59;;;25.39;44.72
4410;BME280;2218;51.408;7.208;2023-07-16T11:00:53;99579.41;;;25.39;44.97
4410;BME280;2218;51.408;7.208;2023-07-16T11:03:20;99573.09;;;25.40;45.23
4410;BME280;2218;51.408;7.208;2023-07-16T11:05:47;99575.75;;;25.40;44.50
4410;BME280;2218;51.408;7.208;2023-07-16T11:08:22;99572.97;;;25.42;45.33
4410;BME280;2218;51.408;7.208;2023-07-16T11:10:55;99574.78;;;25.41;45.22
4410;BME280;2218;51.408;7.208;2023-07-16T11:13:26;99587.22;;;25.41;45.02
4410;BME280;2218;51.408;7.208;2023-07-16T11:15:53;99574.91;;;25.40;45.43
4410;BME280;2218;51.408;7.208;2023-07-16T11:18:22;99572.25;;;25.40;44.83
4410;BME280;2218;51.408;7.208;2023-07-16T11:20:51;99578.41;;;25.40;44.88
4410;BME280;2218;51.408;7.208;2023-07-16T11:23:19;99588.09;;;25.41;45.11
4410;BME280;2218;51.408;7.208;2023-07-16T11:25:46;99583.59;;;25.42;44.90
4410;BME280;2218;51.408;7.208;2023-07-16T11:28:15;99584.44;;;25.42;45.35
4410;BME280;2218;51.408;7.208;2023-07-16T11:30:42;99581.06;;;25.40;45.01
4410;BME280;2218;51.408;7.208;2023-07-16T11:33:11;99584.56;;;25.41;44.80
4410;BME280;2218;51.408;7.208;2023-07-16T11:35:39;99589.88;;;25.41;45.12
4410;BME280;2218;51.408;7.208;2023-07-16T11:38:06;99585.44;;;25.41;45.17
4410;BME280;2218;51.408;7.208;2023-07-16T11:40:35;99593.53;;;25.40;44.64
4410;BME280;2218;51.408;7.208;2023-07-16T11:43:08;99589.06;;;25.40;45.34
4410;BME280;2218;51.408;7.208;2023-07-16T11:45:38;99592.41;;;25.42;45.04
4410;BME280;2218;51.408;7.208;2023-07-16T11:48:05;99596.91;;;25.42;45.13
4410;BME280;2218;51.408;7.208;2023-07-16T11:50:32;99590.75;;;25.41;45.33
4410;BME280;2218;51.408;7.208;2023-07-16T11:53:00;99596.91;;;25.42;45.35
4410;BME280;2218;51.408;7.208;2023-07-16T11:55:28;99609.38;;;25.41;45.03
4410;BME280;2218;51.408;7.208;2023-07-16T11:57:54;99609.38;;;25.41;45.04
4410;BME280;2218;51.408;7.208;2023-07-16T12:00:25;99604.06;;;25.41;45.10
4410;BME280;2218;51.408;7.208;2023-07-16T12:02:53;99603.19;;;25.41;45.11
4410;BME280;2218;51.408;7.208;2023-07-16T12:05:21;99609.38;;;25.41;45.12
4410;BME280;2218;51.408;7.208;2023-07-16T12:07:49;99606.72;;;25.41;45.26
4410;BME280;2218;51.408;7.208;2023-07-16T12:10:16;99596.06;;;25.41;45.02
4410;BME280;2218;51.408;7.208;2023-07-16T12:12:43;99618.31;;;25.40;45.17
4410;BME280;2218;51.408;7.208;2023-07-16T12:15:10;99610.34;;;25.40;45.58
4410;BME280;2218;51.408;7.208;2023-07-16T12:17:37;99613.00;;;25.40;45.05
4410;BME280;2218;51.408;7.208;2023-07-16T12:20:07;99594.38;;;25.40;44.96
4410;BME280;2218;51.408;7.208;2023-07-16T12:22:34;99602.34;;;25.40;44.71
4410;BME280;2218;51.408;7.208;2023-07-16T12:25:02;99613.00;;;25.40;44.79
4410;BME280;2218;51.408;7.208;2023-07-16T12:27:29;99607.66;;;25.40;44.63
4410;BME280;2218;51.408;7.208;2023-07-16T12:29:56;99609.38;;;25.41;44.87
4410;BME280;2218;51.408;7.208;2023-07-16T12:32:23;99610.34;;;25.40;45.03
4410;BME280;2218;51.408;7.208;2023-07-16T12:34:50;99612.16;;;25.40;45.05
4410;BME280;2218;51.408;7.208;2023-07-16T12:37:18;99615.66;;;25.40;44.66
4410;BME280;2218;51.408;7.208;2023-07-16T12:39:45;99615.66;;;25.40;45.35
4410;BME280;2218;51.408;7.208;2023-07-16T12:42:12;99615.66;;;25.40;45.69
4410;BME280;2218;51.408;7.208;2023-07-16T12:44:39;99624.47;;;25.41;45.22
4410;BME280;2218;51.408;7.208;2023-07-16T12:47:06;99624.47;;;25.41;45.10
4410;BME280;2218;51.408;7.208;2023-07-16T12:49:34;99628.00;;;25.41;45.03
4410;BME280;2218;51.408;7.208;2023-07-16T12:52:01;99614.81;;;25.40;44.85
4410;BME280;2218;51.408;7.208;2023-07-16T12:54:29;99627.13;;;25.41;44.59
4410;BME280;2218;51.408;7.208;2023-07-16T12:56:56;99630.66;;;25.41;45.07
4410;BME280;2218;51.408;7.208;2023-07-16T12:59:23;99625.34;;;25.41;44.89
4410;BME280;2218;51.408;7.208;2023-07-16T13:01:50;99629.66;;;25.42;45.24
4410;BME280;2218;51.408;7.208;2023-07-16T13:04:17;99619.16;;;25.41;45.40
4410;BME280;2218;51.408;7.208;2023-07-16T13:06:44;99632.44;;;25.41;45.40
4410;BME280;2218;51.408;7.208;2023-07-16T13:09:13;99622.66;;;25.41;45.12
4410;BME280;2218;51.408;7.208;2023-07-16T13:11:42;99634.16;;;25.42;45.50
4410;BME280;2218;51.408;7.208;2023-07-16T13:14:10;99638.63;;;25.41;45.42
4410;BME280;2218;51.408;7.208;2023-07-16T13:16:36;99629.66;;;25.42;45.79
4410;BME280;2218;51.408;7.208;2023-07-16T13:19:03;99629.66;;;25.42;45.93
4410;BME280;2218;51.408;7.208;2023-07-16T13:21:31;99640.31;;;25.42;46.00
4410;BME280;2218;51.408;7.208;2023-07-16T13:23:58;99634.00;;;25.43;46.02
4410;BME280;2218;51.408;7.208;2023-07-16T13:26:25;99635.66;;;25.44;45.85